Time;durP1;ratioP1;P1;durP2;ratioP2;P2;SDS_P1;SDS_P2;PMS_P1;PMS_P2;Temp;Humidity;BMP_temperature;BMP_pressure;BME280_temperature;BME280_humidity;BME280_pressure;Samples;Min_cycle;Max_cycle;Signal;HPM_P1;HPM_P2
2021/01/11 00:02:00;;;;;;;45.13;23.10;;;-4.30;99.90;;;;;;5075236;28;20689;-77
2021/01/11 00:04:28;;;;;;;44.83;22.10;;;-4.30;99.90;;;;;;5074877;28;20205;-77
2021/01/11 00:06:55;;;;;;;42.27;21.03;;;-4.30;99.90;;;;;;5075739;28;20209;-78
2021/01/11 00:09:22;;;;;;;37.17;22.93;;;-4.30;99.90;;;;;;5075004;28;20194;-77
2021/01/11 00:11:49;;;;;;;39.33;20.33;;;-4.30;99.90;;;;;;5076852;28;20243;-77
2021/01/11 00:14:15;;;;;;;36.47;20.03;;;-4.30;99.90;;;;;;5073394;28;20202;-78
2021/01/11 00:16:41;;;;;;;34.53;20.67;;;-4.40;99.90;;;;;;5071198;28;20209;-78
2021/01/11 00:19:08;;;;;;;41.30;22.60;;;-4.40;99.90;;;;;;5076154;28;20217;-77
2021/01/11 00:21:35;;;;;;;44.40;21.67;;;-4.40;99.90;;;;;;5073261;28;20210;-78
2021/01/11 00:24:01;;;;;;;43.33;23.50;;;-4.40;99.90;;;;;;5071469;28;20229;-78
2021/01/11 00:26:28;;;;;;;43.27;23.63;;;-4.40;99.90;;;;;;5072864;28;20205;-77
2021/01/11 00:28:54;;;;;;;46.87;24.40;;;-4.40;99.90;;;;;;5074098;28;20214;-77
2021/01/11 00:31:24;;;;;;;39.90;20.97;;;-4.50;99.90;;;;;;5072717;28;20198;-77
2021/01/11 00:33:51;;;;;;;37.03;21.80;;;-4.50;99.90;;;;;;5074820;28;20202;-77
2021/01/11 00:36:18;;;;;;;37.00;21.07;;;-4.50;99.90;;;;;;5074909;28;20685;-77
2021/01/11 00:38:46;;;;;;;38.17;23.13;;;-4.50;99.90;;;;;;5074846;28;20221;-78
2021/01/11 00:41:16;;;;;;;42.73;23.20;;;-4.50;99.90;;;;;;5071544;28;20230;-78
2021/01/11 00:43:43;;;;;;;40.30;20.73;;;-4.50;99.90;;;;;;5073359;28;20209;-77
2021/01/11 00:46:09;;;;;;;34.33;20.20;;;-4.60;99.90;;;;;;5074615;28;20638;-77
2021/01/11 00:48:35;;;;;;;41.47;19.87;;;-4.60;99.90;;;;;;5073853;28;20202;-79
2021/01/11 00:51:02;;;;;;;32.67;18.57;;;-4.60;99.90;;;;;;5075819;28;20675;-77
2021/01/11 00:53:29;;;;;;;34.87;20.10;;;-4.60;99.90;;;;;;5073051;28;20212;-77
2021/01/11 00:55:56;;;;;;;33.93;20.03;;;-4.60;99.90;;;;;;5074506;28;20251;-77
2021/01/11 00:58:24;;;;;;;38.87;21.47;;;-4.60;99.90;;;;;;5071378;28;20201;-77
2021/01/11 01:00:53;;;;;;;39.70;22.53;;;-4.70;99.90;;;;;;5069936;28;20218;-77
2021/01/11 01:03:27;;;;;;;40.80;19.30;;;-4.80;99.90;;;;;;5065558;28;20200;-77
2021/01/11 01:05:53;;;;;;;37.90;21.03;;;-4.80;99.90;;;;;;5072383;28;20251;-77
2021/01/11 01:08:20;;;;;;;41.77;23.40;;;-4.80;99.90;;;;;;5068221;28;20561;-77
2021/01/11 01:10:46;;;;;;;38.73;20.80;;;-4.80;99.90;;;;;;5072406;28;20213;-77
2021/01/11 01:13:13;;;;;;;35.73;21.33;;;-4.80;99.90;;;;;;5068980;28;20236;-77
2021/01/11 01:15:39;;;;;;;41.23;23.97;;;-4.90;99.90;;;;;;5070674;28;20240;-77
2021/01/11 01:18:06;;;;;;;46.60;24.17;;;-4.80;99.90;;;;;;5063158;28;20237;-77
2021/01/11 01:20:32;;;;;;;47.00;23.80;;;-4.80;99.90;;;;;;5068601;28;20228;-77
2021/01/11 01:22:58;;;;;;;43.60;21.47;;;-4.80;99.90;;;;;;5070837;28;20207;-77
2021/01/11 01:25:25;;;;;;;41.50;20.90;;;-4.80;99.90;;;;;;5069710;28;20206;-78
2021/01/11 01:27:51;;;;;;;39.93;22.33;;;-4.70;99.90;;;;;;5074441;28;20198;-77
2021/01/11 01:30:19;;;;;;;35.67;20.23;;;-4.80;99.90;;;;;;5069849;28;20198;-77
2021/01/11 01:32:45;;;;;;;33.20;20.47;;;-4.70;99.90;;;;;;5074386;28;20194;-77
2021/01/11 01:35:12;;;;;;;37.87;22.40;;;-4.70;99.90;;;;;;5074770;28;20213;-78
2021/01/11 01:37:39;;;;;;;41.70;23.27;;;-4.70;99.90;;;;;;5067482;28;20197;-77
2021/01/11 01:40:07;;;;;;;41.17;22.60;;;-4.70;99.90;;;;;;5070380;28;20226;-77
2021/01/11 01:42:33;;;;;;;40.40;20.73;;;-4.70;99.90;;;;;;5072175;28;20206;-77
2021/01/11 01:44:59;;;;;;;38.07;19.90;;;-4.70;99.90;;;;;;5071604;28;20237;-77
2021/01/11 01:47:27;;;;;;;33.40;18.63;;;-4.70;99.90;;;;;;5072895;28;20244;-77
2021/01/11 01:49:54;;;;;;;25.30;17.47;;;-4.70;99.90;;;;;;5074304;28;20204;-77
2021/01/11 01:52:21;;;;;;;33.27;18.73;;;-4.70;99.90;;;;;;5072759;28;20197;-77
2021/01/11 01:54:49;;;;;;;30.73;18.47;;;-4.70;99.90;;;;;;5069683;28;20240;-78
2021/01/11 01:57:15;;;;;;;31.37;18.00;;;-4.80;99.90;;;;;;5069135;28;20712;-78
2021/01/11 01:59:45;;;;;;;31.53;18.80;;;-4.80;99.90;;;;;;5074162;28;20568;-77
2021/01/11 02:02:14;;;;;;;37.73;19.33;;;-4.90;99.90;;;;;;5073366;28;20225;-77
2021/01/11 02:04:41;;;;;;;31.93;17.63;;;-4.90;99.90;;;;;;5073864;28;20202;-78
2021/01/11 02:07:14;;;;;;;31.33;18.67;;;-5.00;99.90;;;;;;5073460;28;20204;-77
2021/01/11 02:09:45;;;;;;;36.07;19.03;;;-5.00;99.90;;;;;;5070376;28;20214;-78
2021/01/11 02:12:17;;;;;;;29.63;16.37;;;-5.00;99.90;;;;;;5073651;28;20610;-77
2021/01/11 02:14:55;;;;;;;31.73;18.17;;;-4.90;99.90;;;;;;5071295;28;20569;-77
2021/01/11 02:17:29;;;;;;;38.80;19.50;;;-4.90;99.90;;;;;;5070899;28;20209;-77
2021/01/11 02:20:33;;;;;;;34.73;17.20;;;-4.90;99.90;;;;;;5071764;28;20208;-77
2021/01/11 02:23:13;;;;;;;37.83;19.37;;;-4.80;99.90;;;;;;5085292;28;20220;-77
2021/01/11 02:25:41;;;;;;;36.47;19.37;;;-4.90;99.90;;;;;;5071128;28;20200;-77
2021/01/11 02:28:20;;;;;;;37.43;19.23;;;-4.90;99.90;;;;;;5071527;28;20205;-77
2021/01/11 02:30:52;;;;;;;30.67;16.57;;;-4.90;99.90;;;;;;5068330;28;20194;-77
2021/01/11 02:33:19;;;;;;;35.57;19.07;;;-4.80;99.90;;;;;;5073085;28;20740;-78
2021/01/11 02:36:09;;;;;;;32.43;18.40;;;-4.90;99.90;;;;;;5072302;28;20229;-78
2021/01/11 02:38:37;;;;;;;34.67;17.97;;;-4.90;99.90;;;;;;5063232;28;20209;-78
2021/01/11 02:41:04;;;;;;;30.20;17.77;;;-5.00;99.90;;;;;;5072208;28;20259;-77
2021/01/11 02:43:30;;;;;;;36.83;19.90;;;-5.00;99.90;;;;;;5073313;28;20205;-77
2021/01/11 02:45:57;;;;;;;39.50;20.90;;;-5.00;99.90;;;;;;5073388;28;20226;-77
2021/01/11 02:48:27;;;;;;;33.43;17.80;;;-5.00;99.90;;;;;;5072218;28;20208;-78
2021/01/11 02:51:05;;;;;;;32.90;17.77;;;-5.00;99.90;;;;;;5067808;28;20228;-77
2021/01/11 02:53:48;;;;;;;34.40;18.90;;;-4.90;99.90;;;;;;5072138;28;20210;-77
2021/01/11 02:56:21;;;;;;;36.17;19.83;;;-4.90;99.90;;;;;;5071324;28;20271;-77
2021/01/11 02:59:15;;;;;;;31.97;17.60;;;-5.00;99.90;;;;;;5072720;28;20240;-78
2021/01/11 03:01:49;;;;;;;38.03;17.90;;;-4.90;99.90;;;;;;5073592;28;20755;-77
2021/01/11 03:04:21;;;;;;;34.50;17.60;;;-4.90;99.90;;;;;;5071257;28;20206;-78
2021/01/11 03:06:55;;;;;;;35.83;18.83;;;-4.90;99.90;;;;;;5071821;28;20209;-77
2021/01/11 03:09:21;;;;;;;35.47;19.20;;;-4.80;99.90;;;;;;5066942;28;20663;-78
2021/01/11 03:11:50;;;;;;;40.67;21.97;;;-4.90;99.90;;;;;;5072744;28;20671;-78
2021/01/11 03:14:17;;;;;;;36.77;19.80;;;-4.80;99.90;;;;;;5072563;28;20655;-78
2021/01/11 03:16:44;;;;;;;34.10;19.37;;;-4.80;99.90;;;;;;5069970;28;20252;-78
2021/01/11 03:19:10;;;;;;;43.53;21.67;;;-4.80;99.90;;;;;;5071101;28;20214;-77
2021/01/11 03:21:37;;;;;;;32.57;19.30;;;-4.80;99.90;;;;;;5073246;28;20213;-78
2021/01/11 03:24:04;;;;;;;34.90;19.80;;;-4.90;99.90;;;;;;5073440;28;20670;-78
2021/01/11 03:26:30;;;;;;;37.13;19.73;;;-4.80;99.90;;;;;;5070122;28;20209;-78
2021/01/11 03:28:57;;;;;;;38.83;19.17;;;-4.80;99.90;;;;;;5076889;28;20212;-78
2021/01/11 03:31:23;;;;;;;31.87;18.77;;;-4.70;99.90;;;;;;5076069;28;20217;-78
2021/01/11 03:33:51;;;;;;;35.60;20.20;;;-4.80;99.90;;;;;;5076927;28;20662;-78
2021/01/11 03:36:17;;;;;;;32.77;18.63;;;-4.80;99.90;;;;;;5072780;28;20198;-78
2021/01/11 03:38:44;;;;;;;31.40;18.67;;;-4.70;99.90;;;;;;5071542;28;20205;-77
2021/01/11 03:41:11;;;;;;;38.57;20.10;;;-4.80;99.90;;;;;;5069383;28;20218;-77
2021/01/11 03:43:40;;;;;;;35.73;20.10;;;-4.80;99.90;;;;;;5072566;28;20201;-76
2021/01/11 03:46:07;;;;;;;29.87;18.50;;;-4.80;99.90;;;;;;5080273;28;20548;-77
2021/01/11 03:48:33;;;;;;;33.03;17.87;;;-4.80;99.90;;;;;;5078073;28;20271;-77
2021/01/11 03:51:01;;;;;;;35.47;18.60;;;-4.80;99.90;;;;;;5074052;28;20237;-77
2021/01/11 03:53:27;;;;;;;37.77;19.10;;;-4.80;99.90;;;;;;5073690;28;20204;-78
2021/01/11 03:55:54;;;;;;;31.63;17.73;;;-4.80;99.90;;;;;;5076018;28;20198;-78
2021/01/11 03:58:20;;;;;;;31.47;18.13;;;-4.80;99.90;;;;;;5075684;28;20213;-78
2021/01/11 04:00:48;;;;;;;31.83;18.37;;;-4.80;99.90;;;;;;5073195;28;20222;-78
2021/01/11 04:03:14;;;;;;;35.73;19.70;;;-4.80;99.90;;;;;;5091287;28;20255;-78
2021/01/11 04:05:43;;;;;;;40.60;19.60;;;-4.70;99.90;;;;;;5074715;28;20194;-78
2021/01/11 04:08:10;;;;;;;31.70;18.63;;;-4.70;99.90;;;;;;5074981;28;20213;-78
2021/01/11 04:10:37;;;;;;;38.50;17.77;;;-4.70;99.90;;;;;;5073490;28;20225;-78
2021/01/11 04:13:04;;;;;;;31.63;18.27;;;-4.80;99.90;;;;;;5076537;28;20213;-79
2021/01/11 04:15:30;;;;;;;31.73;17.20;;;-4.80;99.90;;;;;;5076114;28;20229;-77
2021/01/11 04:17:56;;;;;;;33.47;18.63;;;-4.80;99.90;;;;;;5075679;28;20206;-77
2021/01/11 04:20:23;;;;;;;31.10;17.93;;;-4.80;99.90;;;;;;5076125;28;20222;-77
2021/01/11 04:22:49;;;;;;;36.10;18.60;;;-4.80;99.90;;;;;;5071963;28;20210;-77
2021/01/11 04:25:17;;;;;;;31.83;18.03;;;-4.80;99.90;;;;;;5073122;28;20259;-77
2021/01/11 04:27:43;;;;;;;31.93;17.50;;;-4.80;99.90;;;;;;5075063;28;20260;-77
2021/01/11 04:30:11;;;;;;;34.87;19.53;;;-4.80;99.90;;;;;;5075483;28;20568;-77
2021/01/11 04:32:38;;;;;;;32.30;19.80;;;-4.80;99.90;;;;;;5075453;28;20251;-77
2021/01/11 04:35:07;;;;;;;37.57;19.67;;;-4.70;99.90;;;;;;5075598;28;20518;-77
2021/01/11 04:37:34;;;;;;;36.27;18.93;;;-4.70;99.90;;;;;;5070096;28;20685;-78
2021/01/11 04:40:00;;;;;;;39.93;19.67;;;-4.60;99.90;;;;;;5071176;28;20198;-77
2021/01/11 04:42:34;;;;;;;40.93;24.10;;;-4.60;99.90;;;;;;5075345;28;20260;-78
2021/01/11 04:45:01;;;;;;;39.70;21.47;;;-4.70;99.90;;;;;;5068660;28;20226;-77
2021/01/11 04:47:27;;;;;;;37.47;18.90;;;-4.70;99.90;;;;;;5077224;28;20198;-78
2021/01/11 04:49:54;;;;;;;37.43;19.90;;;-4.70;99.90;;;;;;5070305;28;20266;-78
2021/01/11 04:52:21;;;;;;;35.57;19.47;;;-4.70;99.90;;;;;;5067915;28;20198;-78
2021/01/11 04:54:50;;;;;;;39.23;20.07;;;-4.70;99.90;;;;;;5070568;28;20255;-78
2021/01/11 04:57:16;;;;;;;39.70;20.97;;;-4.70;99.90;;;;;;5067499;28;20206;-78
2021/01/11 04:59:50;;;;;;;34.77;19.97;;;-4.70;99.90;;;;;;5063662;28;20232;-78
2021/01/11 05:02:21;;;;;;;42.10;20.93;;;-4.80;99.90;;;;;;5070209;28;20225;-78
2021/01/11 05:04:48;;;;;;;37.30;20.90;;;-4.80;99.90;;;;;;5072380;28;20205;-78
2021/01/11 05:07:16;;;;;;;32.83;20.07;;;-4.80;99.90;;;;;;5072524;28;20236;-78
2021/01/11 05:09:45;;;;;;;36.87;22.03;;;-4.80;99.90;;;;;;5071929;28;20263;-78
2021/01/11 05:12:13;;;;;;;34.10;19.60;;;-4.80;99.90;;;;;;5074339;28;20202;-78
2021/01/11 05:14:40;;;;;;;33.50;18.93;;;-4.90;99.90;;;;;;5073777;28;20618;-78
2021/01/11 05:17:07;;;;;;;33.07;19.53;;;-4.90;99.90;;;;;;5074362;28;20209;-78
2021/01/11 05:19:33;;;;;;;33.57;17.90;;;-4.90;99.90;;;;;;5072933;28;20212;-78
2021/01/11 05:22:00;;;;;;;35.80;19.27;;;-4.90;99.90;;;;;;5074120;28;20229;-78
2021/01/11 05:24:31;;;;;;;37.33;17.30;;;-4.80;99.90;;;;;;5072942;28;20289;-77
2021/01/11 05:26:59;;;;;;;33.03;17.43;;;-4.80;99.90;;;;;;5068418;28;20206;-78
2021/01/11 05:29:25;;;;;;;27.73;16.23;;;-4.70;99.90;;;;;;5073484;28;20252;-78
2021/01/11 05:31:56;;;;;;;30.13;17.77;;;-4.80;99.90;;;;;;5070547;28;20187;-77
2021/01/11 05:34:23;;;;;;;33.10;18.13;;;-4.90;99.90;;;;;;5072022;28;20256;-78
2021/01/11 05:36:51;;;;;;;32.77;17.90;;;-4.90;99.90;;;;;;5072346;28;20596;-78
2021/01/11 05:39:24;;;;;;;35.57;19.20;;;-5.00;99.90;;;;;;5072723;28;20208;-77
2021/01/11 05:41:50;;;;;;;30.73;20.30;;;-5.00;99.90;;;;;;5071810;28;20230;-78
2021/01/11 05:44:17;;;;;;;35.63;20.40;;;-5.10;99.90;;;;;;5073961;28;20190;-78
2021/01/11 05:46:45;;;;;;;34.57;18.27;;;-5.10;99.90;;;;;;5072390;28;20209;-78
2021/01/11 05:49:12;;;;;;;28.87;16.03;;;-5.10;99.90;;;;;;5066338;28;20221;-78
2021/01/11 05:51:40;;;;;;;34.70;18.17;;;-5.10;99.90;;;;;;5065905;28;20206;-78
2021/01/11 05:54:23;;;;;;;29.10;17.70;;;-5.20;99.90;;;;;;5070034;28;20608;-78
2021/01/11 05:56:55;;;;;;;28.40;17.47;;;-5.20;99.90;;;;;;5072135;28;20304;-78
2021/01/11 05:59:21;;;;;;;35.07;19.27;;;-5.20;99.90;;;;;;5066158;28;20248;-78
2021/01/11 06:01:48;;;;;;;34.50;17.57;;;-5.20;99.90;;;;;;5075215;28;20253;-78
2021/01/11 06:04:14;;;;;;;27.93;17.47;;;-5.20;99.90;;;;;;5068606;28;20213;-78
2021/01/11 06:06:42;;;;;;;32.27;16.97;;;-5.20;99.90;;;;;;5069611;28;20202;-78
2021/01/11 06:09:09;;;;;;;35.30;18.40;;;-5.20;99.90;;;;;;5065860;28;20221;-78
2021/01/11 06:11:37;;;;;;;27.20;17.03;;;-5.30;99.90;;;;;;5065105;28;20233;-78
2021/01/11 06:14:05;;;;;;;27.23;16.83;;;-5.30;99.90;;;;;;5066705;28;21212;-78
2021/01/11 06:16:31;;;;;;;33.80;16.47;;;-5.30;99.90;;;;;;5071750;28;20673;-78
2021/01/11 06:18:58;;;;;;;30.43;17.83;;;-5.30;99.90;;;;;;5073269;28;20262;-78
2021/01/11 06:21:25;;;;;;;32.47;17.90;;;-5.20;99.90;;;;;;5073136;28;20217;-78
2021/01/11 06:24:17;;;;;;;30.97;17.67;;;-5.30;99.90;;;;;;5073074;28;20198;-78
2021/01/11 06:26:44;;;;;;;31.07;17.20;;;-5.30;99.90;;;;;;5072635;28;20207;-78
2021/01/11 06:29:29;;;;;;;35.50;19.37;;;-5.40;99.90;;;;;;5067252;28;20225;-78
2021/01/11 06:31:57;;;;;;;31.67;17.20;;;-5.30;99.90;;;;;;5062520;28;20208;-78
2021/01/11 06:34:34;;;;;;;35.77;18.07;;;-5.30;99.90;;;;;;5070167;28;20204;-78
2021/01/11 06:37:02;;;;;;;35.50;19.53;;;-5.30;99.90;;;;;;5072220;28;20209;-78
2021/01/11 06:39:33;;;;;;;37.77;19.93;;;-5.30;99.90;;;;;;5071164;28;20290;-78
2021/01/11 06:42:10;;;;;;;33.83;18.43;;;-5.30;99.90;;;;;;5071157;28;20221;-79
2021/01/11 06:44:38;;;;;;;35.13;19.30;;;-5.30;99.90;;;;;;5070728;28;20213;-78
2021/01/11 06:47:08;;;;;;;30.50;15.93;;;-5.20;99.90;;;;;;5070689;28;20209;-78
2021/01/11 06:49:36;;;;;;;36.43;19.03;;;-5.20;99.90;;;;;;5072569;28;20202;-78
2021/01/11 06:52:07;;;;;;;36.13;17.73;;;-5.20;99.90;;;;;;5072060;28;20198;-78
2021/01/11 06:54:43;;;;;;;32.40;17.17;;;-5.20;99.90;;;;;;5072570;28;20590;-78
2021/01/11 06:57:16;;;;;;;32.53;18.37;;;-5.30;99.90;;;;;;5070807;28;20223;-78
2021/01/11 06:59:45;;;;;;;31.20;17.73;;;-5.30;99.90;;;;;;5066330;28;20205;-78
2021/01/11 07:02:22;;;;;;;37.63;21.50;;;-5.20;99.90;;;;;;5072270;28;20248;-78
2021/01/11 07:04:49;;;;;;;38.00;17.37;;;-5.30;99.90;;;;;;5076431;28;20209;-78
2021/01/11 07:07:24;;;;;;;31.67;17.70;;;-5.30;99.90;;;;;;5071246;28;20551;-78
2021/01/11 07:09:54;;;;;;;34.33;19.23;;;-5.30;99.90;;;;;;5070533;28;20209;-78
2021/01/11 07:12:22;;;;;;;34.57;20.00;;;-5.30;99.90;;;;;;5074443;28;20634;-78
2021/01/11 07:15:05;;;;;;;34.67;17.90;;;-5.30;99.90;;;;;;5074393;28;20693;-78
2021/01/11 07:17:34;;;;;;;32.13;18.53;;;-5.30;99.90;;;;;;5075704;28;20564;-78
2021/01/11 07:20:00;;;;;;;37.80;19.57;;;-5.30;99.90;;;;;;5065347;28;20308;-78
2021/01/11 07:22:26;;;;;;;31.83;17.00;;;-5.20;99.90;;;;;;5076458;28;20575;-78
2021/01/11 07:24:54;;;;;;;43.23;19.33;;;-5.30;99.90;;;;;;5075477;28;20213;-78
2021/01/11 07:27:20;;;;;;;38.73;19.47;;;-5.30;99.90;;;;;;5071321;28;20205;-78
2021/01/11 07:29:46;;;;;;;32.27;16.93;;;-5.40;99.90;;;;;;5081970;28;20201;-78
2021/01/11 07:32:13;;;;;;;34.37;19.67;;;-5.40;99.90;;;;;;5069997;28;20234;-78
2021/01/11 07:34:39;;;;;;;35.90;19.53;;;-5.30;99.90;;;;;;5076240;28;20682;-79
2021/01/11 07:37:06;;;;;;;35.90;18.23;;;-5.30;99.90;;;;;;5075362;28;20209;-78
2021/01/11 07:39:33;;;;;;;29.70;17.37;;;-5.40;99.90;;;;;;5075240;28;20285;-78
2021/01/11 07:42:02;;;;;;;35.50;18.93;;;-5.40;99.90;;;;;;5078585;28;20241;-78
2021/01/11 07:44:31;;;;;;;34.00;18.57;;;-5.40;99.90;;;;;;5079105;28;20221;-78
2021/01/11 07:47:00;;;;;;;36.63;19.20;;;-5.40;99.90;;;;;;5075695;28;20209;-79
2021/01/11 07:49:27;;;;;;;43.03;19.10;;;-5.40;99.90;;;;;;5073387;28;20283;-78
2021/01/11 07:51:54;;;;;;;34.17;20.13;;;-5.40;99.90;;;;;;5070190;28;20202;-78
2021/01/11 07:54:22;;;;;;;29.57;17.43;;;-5.40;99.90;;;;;;5071048;28;20198;-80
2021/01/11 07:56:49;;;;;;;30.97;16.93;;;-5.50;99.90;;;;;;5071868;28;20238;-78
2021/01/11 07:59:17;;;;;;;31.43;17.30;;;-5.40;99.90;;;;;;5071654;28;20190;-78
2021/01/11 08:01:44;;;;;;;36.20;19.47;;;-5.30;99.90;;;;;;5071943;28;20232;-78
2021/01/11 08:04:12;;;;;;;34.27;19.13;;;-5.30;99.90;;;;;;5071348;28;20611;-78
2021/01/11 08:06:53;;;;;;;34.17;19.73;;;-5.20;99.90;;;;;;5068950;28;20763;-78
2021/01/11 08:09:21;;;;;;;33.37;18.17;;;-5.20;99.90;;;;;;5068756;28;20259;-78
2021/01/11 08:11:48;;;;;;;37.90;19.63;;;-5.20;99.90;;;;;;5070783;28;20218;-78
2021/01/11 08:14:15;;;;;;;36.23;17.33;;;-5.20;99.90;;;;;;5074550;28;20202;-78
2021/01/11 08:16:44;;;;;;;38.77;19.37;;;-5.10;99.90;;;;;;5073273;28;20259;-78
2021/01/11 08:19:11;;;;;;;35.90;17.73;;;-5.10;99.90;;;;;;5074298;28;20271;-78
2021/01/11 08:21:39;;;;;;;36.20;17.83;;;-5.10;99.90;;;;;;5076320;28;20245;-78
2021/01/11 08:24:06;;;;;;;37.63;17.37;;;-5.10;99.90;;;;;;5075677;28;20209;-78
2021/01/11 08:26:45;;;;;;;30.57;15.60;;;-5.10;99.90;;;;;;5073436;28;20194;-78
2021/01/11 08:29:11;;;;;;;33.77;17.43;;;-5.10;99.90;;;;;;5074752;28;20587;-78
2021/01/11 08:31:40;;;;;;;35.90;17.60;;;-5.00;99.90;;;;;;5075850;28;20193;-78
2021/01/11 08:34:07;;;;;;;32.80;20.00;;;-4.90;99.90;;;;;;5071203;28;20518;-78
2021/01/11 08:36:33;;;;;;;37.20;17.83;;;-4.90;99.90;;;;;;5067992;28;20662;-78
2021/01/11 08:39:12;;;;;;;30.57;17.27;;;-4.90;99.90;;;;;;5069206;28;20245;-78
2021/01/11 08:41:41;;;;;;;34.40;17.57;;;-4.90;99.90;;;;;;5074133;28;20225;-78
2021/01/11 08:44:23;;;;;;;29.20;16.43;;;-4.90;99.90;;;;;;5073536;28;20274;-78
2021/01/11 08:47:04;;;;;;;30.30;16.57;;;-4.90;99.90;;;;;;5072496;28;20491;-78
2021/01/11 08:49:31;;;;;;;31.20;17.47;;;-4.90;99.90;;;;;;5090637;28;20205;-78
2021/01/11 08:52:08;;;;;;;30.57;17.07;;;-4.80;99.90;;;;;;5071583;28;20640;-78
2021/01/11 08:54:34;;;;;;;32.00;16.30;;;-4.70;99.90;;;;;;5073056;28;20205;-78
2021/01/11 08:57:12;;;;;;;31.00;17.43;;;-4.70;99.90;;;;;;5073388;28;20669;-79
2021/01/11 08:59:48;;;;;;;31.87;16.77;;;-4.70;99.90;;;;;;5074669;28;20201;-78
2021/01/11 09:02:26;;;;;;;34.50;19.60;;;-4.80;99.90;;;;;;5074206;28;20760;-78
2021/01/11 09:04:53;;;;;;;39.57;19.27;;;-4.80;99.90;;;;;;5073434;28;20209;-78
2021/01/11 09:07:30;;;;;;;36.37;19.53;;;-4.80;99.90;;;;;;5074673;28;20190;-78
2021/01/11 09:09:58;;;;;;;35.37;18.47;;;-4.70;99.90;;;;;;5068616;28;20674;-78
2021/01/11 09:12:29;;;;;;;29.77;15.97;;;-4.60;99.90;;;;;;5073668;28;20263;-78
2021/01/11 09:14:56;;;;;;;35.67;17.63;;;-4.60;99.90;;;;;;5073050;28;20308;-78
2021/01/11 09:17:28;;;;;;;31.77;16.07;;;-4.50;99.90;;;;;;5074584;28;20205;-78
2021/01/11 09:19:55;;;;;;;27.93;16.37;;;-4.50;99.90;;;;;;5070442;28;20659;-78
2021/01/11 09:22:31;;;;;;;31.63;17.33;;;-4.40;99.90;;;;;;5072575;28;20293;-78
2021/01/11 09:24:58;;;;;;;28.77;17.23;;;-4.20;99.90;;;;;;5066261;28;20216;-78
2021/01/11 09:27:25;;;;;;;28.37;16.20;;;-4.20;99.90;;;;;;5071629;28;20213;-78
2021/01/11 09:29:51;;;;;;;31.50;17.30;;;-4.20;99.90;;;;;;5072664;28;20201;-77
2021/01/11 09:32:18;;;;;;;28.40;16.60;;;-4.10;99.90;;;;;;5072422;28;20218;-77
2021/01/11 09:34:45;;;;;;;28.17;14.77;;;-4.10;99.90;;;;;;5072875;28;20241;-79
2021/01/11 09:37:12;;;;;;;31.50;16.70;;;-4.00;99.90;;;;;;5067473;28;20210;-78
2021/01/11 09:39:38;;;;;;;25.07;16.50;;;-4.00;99.90;;;;;;5071893;28;20213;-78
2021/01/11 09:42:05;;;;;;;26.90;14.83;;;-4.00;99.90;;;;;;5072507;28;20224;-77
2021/01/11 09:44:32;;;;;;;28.43;17.97;;;-3.90;99.90;;;;;;5070926;28;20573;-77
2021/01/11 09:46:59;;;;;;;28.07;16.07;;;-3.90;99.90;;;;;;5071928;28;20222;-78
2021/01/11 09:49:27;;;;;;;28.20;16.87;;;-3.90;99.90;;;;;;5069207;28;20699;-77
2021/01/11 09:51:54;;;;;;;24.83;16.90;;;-3.90;99.90;;;;;;5072080;28;20577;-79
2021/01/11 09:54:21;;;;;;;22.63;15.53;;;-3.90;99.90;;;;;;5069702;28;20205;-78
2021/01/11 09:56:47;;;;;;;28.80;15.77;;;-3.80;99.90;;;;;;5072298;28;20196;-78
2021/01/11 09:59:15;;;;;;;29.47;16.93;;;-3.80;99.90;;;;;;5069830;28;20206;-77
2021/01/11 10:01:42;;;;;;;29.37;17.80;;;-3.80;99.90;;;;;;5068989;28;20346;-76
2021/01/11 10:04:09;;;;;;;35.33;21.23;;;-3.80;99.90;;;;;;5065161;28;20663;-77
2021/01/11 10:06:43;;;;;;;31.93;17.87;;;-3.70;99.90;;;;;;5065136;28;20225;-78
2021/01/11 10:09:11;;;;;;;29.53;17.60;;;-3.80;99.90;;;;;;5064226;28;20198;-78
2021/01/11 10:11:38;;;;;;;31.53;18.40;;;-3.70;99.90;;;;;;5062709;28;20193;-77
2021/01/11 10:14:05;;;;;;;35.27;18.33;;;-3.80;99.90;;;;;;5064586;28;20203;-77
2021/01/11 10:16:32;;;;;;;26.83;16.37;;;-3.60;99.90;;;;;;5064539;28;20197;-77
2021/01/11 10:18:58;;;;;;;24.40;15.47;;;-3.50;99.90;;;;;;5061044;28;20214;-78
2021/01/11 10:21:25;;;;;;;28.40;17.00;;;-3.40;99.90;;;;;;5072714;28;20228;-79
2021/01/11 10:23:52;;;;;;;24.33;16.13;;;-3.40;99.90;;;;;;5071528;28;20206;-77
2021/01/11 10:26:20;;;;;;;21.20;13.47;;;-3.30;99.90;;;;;;5061984;28;20190;-77
2021/01/11 10:28:48;;;;;;;29.30;16.67;;;-3.30;99.90;;;;;;5070179;28;20224;-78
2021/01/11 10:31:15;;;;;;;23.67;16.23;;;-3.40;99.90;;;;;;5069553;28;20190;-77
2021/01/11 10:33:41;;;;;;;28.23;15.43;;;-3.40;99.90;;;;;;5069584;28;20220;-78
2021/01/11 10:36:08;;;;;;;25.00;14.60;;;-3.30;99.90;;;;;;5071060;28;20219;-78
2021/01/11 10:38:35;;;;;;;23.30;15.43;;;-3.20;99.90;;;;;;5075927;28;20751;-78
2021/01/11 10:41:01;;;;;;;25.83;15.77;;;-3.20;99.90;;;;;;5075174;28;20221;-77
2021/01/11 10:43:30;;;;;;;21.63;15.67;;;-3.10;99.90;;;;;;5074960;28;20206;-78
2021/01/11 10:45:56;;;;;;;22.47;14.80;;;-3.00;99.90;;;;;;5073696;28;20256;-78
2021/01/11 10:48:22;;;;;;;24.47;15.43;;;-2.90;99.90;;;;;;5072357;28;20514;-77
2021/01/11 10:50:49;;;;;;;25.73;17.27;;;-2.90;99.90;;;;;;5074921;28;20286;-77
2021/01/11 10:53:15;;;;;;;24.30;14.27;;;-3.00;99.90;;;;;;5076680;28;20733;-77
2021/01/11 10:55:42;;;;;;;26.00;17.13;;;-3.00;99.90;;;;;;5070674;28;20206;-77
2021/01/11 10:58:08;;;;;;;25.33;15.37;;;-3.00;99.90;;;;;;5068091;28;20210;-77
2021/01/11 11:00:35;;;;;;;24.47;15.40;;;-3.00;99.90;;;;;;5075008;28;20206;-77
2021/01/11 11:03:05;;;;;;;25.57;15.30;;;-3.00;99.90;;;;;;5075549;28;20741;-77
2021/01/11 11:05:31;;;;;;;24.93;14.57;;;-3.00;99.90;;;;;;5073369;28;20626;-77
2021/01/11 11:07:57;;;;;;;22.67;14.87;;;-3.10;99.90;;;;;;5076311;28;20202;-77
2021/01/11 11:10:24;;;;;;;21.53;13.50;;;-3.20;99.90;;;;;;5070050;28;20213;-77
2021/01/11 11:12:51;;;;;;;22.23;14.07;;;-3.20;99.90;;;;;;5076251;28;20206;-77
2021/01/11 11:15:18;;;;;;;20.07;14.10;;;-3.20;99.90;;;;;;5073971;28;20231;-77
2021/01/11 11:17:45;;;;;;;25.33;15.00;;;-3.30;99.90;;;;;;5067962;28;20203;-77
2021/01/11 11:20:13;;;;;;;26.13;16.20;;;-3.30;99.90;;;;;;5076702;28;20211;-77
2021/01/11 11:22:39;;;;;;;20.47;13.83;;;-3.30;99.90;;;;;;5076438;28;20218;-77
2021/01/11 11:25:07;;;;;;;20.10;14.50;;;-3.30;99.90;;;;;;5076507;28;20247;-77
2021/01/11 11:27:34;;;;;;;26.40;14.73;;;-3.40;99.90;;;;;;5073254;28;20195;-77
2021/01/11 11:30:01;;;;;;;23.60;13.77;;;-3.40;99.90;;;;;;5071927;28;20210;-77
2021/01/11 11:32:30;;;;;;;25.23;16.43;;;-3.40;99.90;;;;;;5070280;28;20694;-77
2021/01/11 11:34:57;;;;;;;25.27;16.10;;;-3.40;99.90;;;;;;5071743;28;20202;-78
2021/01/11 11:37:24;;;;;;;24.93;15.30;;;-3.40;99.90;;;;;;5075106;28;20726;-78
2021/01/11 11:39:50;;;;;;;25.93;14.37;;;-3.30;99.90;;;;;;5069019;28;20761;-78
2021/01/11 11:42:16;;;;;;;21.03;14.17;;;-3.40;99.90;;;;;;5071594;28;20226;-77
2021/01/11 11:44:42;;;;;;;20.83;15.00;;;-3.40;99.90;;;;;;5074370;28;20537;-78
2021/01/11 11:47:09;;;;;;;21.27;13.57;;;-3.50;99.90;;;;;;5071261;28;20202;-76
2021/01/11 11:49:35;;;;;;;23.10;13.70;;;-3.50;99.90;;;;;;5071199;28;20593;-77
2021/01/11 11:52:02;;;;;;;20.77;14.37;;;-3.60;99.90;;;;;;5070373;28;20198;-77
2021/01/11 11:54:29;;;;;;;25.13;13.93;;;-3.60;99.90;;;;;;5073554;28;20231;-77
2021/01/11 11:56:55;;;;;;;28.17;14.70;;;-3.70;99.90;;;;;;5066412;28;20209;-77
2021/01/11 11:59:21;;;;;;;21.97;13.83;;;-3.70;99.90;;;;;;5073690;28;20206;-77
2021/01/11 12:01:48;;;;;;;27.90;14.20;;;-3.80;99.90;;;;;;5071764;28;20226;-77
2021/01/11 12:04:16;;;;;;;25.20;15.30;;;-3.70;99.90;;;;;;5067151;28;20256;-77
2021/01/11 12:06:43;;;;;;;22.53;13.70;;;-3.70;99.90;;;;;;5068522;28;20206;-77
2021/01/11 12:09:11;;;;;;;23.20;14.40;;;-3.70;99.90;;;;;;5073031;28;20244;-77
2021/01/11 12:11:39;;;;;;;25.20;13.83;;;-3.70;99.90;;;;;;5070076;28;20209;-77
2021/01/11 12:14:06;;;;;;;25.60;14.77;;;-3.60;99.90;;;;;;5072128;28;20233;-77
2021/01/11 12:16:32;;;;;;;25.17;15.77;;;-3.60;99.90;;;;;;5086215;28;20204;-77
2021/01/11 12:18:58;;;;;;;26.03;15.77;;;-3.50;99.90;;;;;;5072505;28;20205;-77
2021/01/11 12:21:29;;;;;;;24.13;14.37;;;-3.60;99.90;;;;;;5071899;28;20561;-77
2021/01/11 12:23:55;;;;;;;23.00;14.03;;;-3.50;99.90;;;;;;5069447;28;20734;-77
2021/01/11 12:26:22;;;;;;;25.57;16.13;;;-3.50;99.90;;;;;;5068144;28;20230;-77
2021/01/11 12:28:49;;;;;;;25.57;15.07;;;-3.50;99.90;;;;;;5070046;28;20259;-77
2021/01/11 12:31:15;;;;;;;22.93;14.77;;;-3.40;99.90;;;;;;5073107;28;20233;-77
2021/01/11 12:33:41;;;;;;;20.57;13.33;;;-3.40;99.90;;;;;;5073529;28;20217;-77
2021/01/11 12:36:08;;;;;;;26.73;15.37;;;-3.40;99.90;;;;;;5074255;28;20229;-78